»·PEaware :: AWE247 KMRY-KLGB

AWE247 :: KMRY-KLGB

FLIGHT INFORMATION

Flight Status: Arrived
Operator:
US Airways
More flights by this operator :: More flights under this callsign
Pilot: Ben F. (13029)
Aircraft: BOEING 737-300
(B733)
More flights by this aircraft type
Origin: KMRY Monterey Peninsula
United States
Destination: KLGB Long Beach
United States
More flights between these airports :: More routes between these airports
Route: +BSR MCKEY DAISY BENET SXC
File this flight plan on PilotEdge
Remarks: RMK / SIMBRIEF
Altitude:
(Current/Filed)
35,000ft
Speed:
(Current/Filed)
433kts
Departed: 14-Jun-19 06:11 PM
Arrived: 14-Jun-19 07:07 PM
Distance/Time
Traveled:
246nm/0:56
Distance/Time
To Go:
Arrived

Flight Plot

Page will automatically refresh every two minutes.

Flight plan parsing failed; only flown route is shown


Map Options




Map Legend


Flown Route
Filed Route
Departure Airport
Arrival Airport
Navaid (VOR, NDB)
Fix

Horizontal Profiles

Position Reports

Time Latitude Longitude Heading Altitude Ground
Speed
14-Jun-19 17:43 36.587348 -121.849664 232 186ft 0kts
14-Jun-19 17:44 36.587348 -121.849664 232 186ft 0kts
14-Jun-19 17:45 36.587348 -121.849664 232 186ft 0kts
14-Jun-19 17:45 36.587348 -121.849664 232 186ft 0kts
14-Jun-19 17:47 36.587348 -121.849664 232 186ft 0kts
14-Jun-19 17:48 36.587348 -121.849664 232 186ft 0kts
14-Jun-19 17:48 36.587348 -121.849664 232 186ft 0kts
14-Jun-19 17:50 36.587348 -121.849664 232 186ft 0kts
14-Jun-19 17:51 36.587348 -121.849664 232 186ft 0kts
14-Jun-19 17:51 36.587348 -121.849664 232 186ft 0kts
14-Jun-19 17:52 36.587348 -121.849664 232 186ft 0kts
14-Jun-19 17:54 36.587348 -121.849664 232 186ft 0kts
14-Jun-19 17:54 36.587348 -121.849664 232 186ft 0kts
14-Jun-19 17:55 36.587348 -121.849664 232 186ft 0kts
14-Jun-19 17:56 36.587348 -121.849664 232 186ft 0kts
14-Jun-19 17:57 36.587348 -121.849664 232 186ft 0kts
14-Jun-19 17:58 36.587348 -121.849664 232 186ft 0kts
14-Jun-19 17:59 36.587390 -121.849594 232 186ft 2kts
14-Jun-19 18:00 36.587443 -121.849249 297 186ft 0kts
14-Jun-19 18:01 36.587443 -121.849250 297 186ft 0kts
14-Jun-19 18:02 36.587558 -121.849436 321 185ft 6kts
14-Jun-19 18:03 36.587826 -121.849260 93 183ft 5kts
14-Jun-19 18:04 36.587426 -121.848152 110 188ft 3kts
14-Jun-19 18:05 36.586356 -121.845351 113 203ft 9kts
14-Jun-19 18:06 36.584935 -121.841168 112 237ft 10kts
14-Jun-19 18:07 36.583034 -121.835587 113 243ft 18kts
14-Jun-19 18:08 36.582807 -121.834493 94 235ft 9kts
14-Jun-19 18:09 36.583525 -121.834136 294 233ft 17kts
14-Jun-19 18:10 36.597537 -121.874886 291 1128ft 182kts
14-Jun-19 18:11 36.639519 -121.899894 345 3288ft 187kts
14-Jun-19 18:12 36.682803 -121.927250 276 5102ft 188kts
14-Jun-19 18:13 36.638881 -121.953128 140 5907ft 274kts
14-Jun-19 18:14 36.581452 -121.893058 155 8738ft 275kts
14-Jun-19 18:15 36.510196 -121.848321 154 10615ft 318kts
14-Jun-19 18:16 36.429497 -121.797515 154 13390ft 330kts
14-Jun-19 18:17 36.346305 -121.745267 154 16125ft 341kts
14-Jun-19 18:18 36.260141 -121.691258 155 18595ft 353kts
14-Jun-19 18:19 36.171417 -121.634383 151 20802ft 368kts
14-Jun-19 18:20 36.084051 -121.563650 151 22765ft 381kts
14-Jun-19 18:21 35.993273 -121.490432 151 24550ft 394kts
14-Jun-19 18:22 35.899088 -121.414689 152 26144ft 409kts
14-Jun-19 18:23 35.801120 -121.336227 153 27645ft 423kts
14-Jun-19 18:24 35.701899 -121.256666 153 29413ft 424kts
14-Jun-19 18:25 35.602294 -121.177262 154 30930ft 426kts
14-Jun-19 18:26 35.502380 -121.097889 154 32190ft 430kts
14-Jun-19 18:27 35.400843 -121.018087 154 33319ft 433kts
14-Jun-19 18:28 35.298922 -120.937640 154 34157ft 438kts
14-Jun-19 18:29 35.196421 -120.856917 154 34300ft 436kts
14-Jun-19 18:30 35.094269 -120.776749 154 35054ft 436kts
14-Jun-19 18:31 34.992290 -120.696922 153 35018ft 432kts
14-Jun-19 18:32 34.890094 -120.617197 152 35016ft 434kts
14-Jun-19 18:33 34.788261 -120.538160 152 35039ft 433kts
14-Jun-19 18:34 34.686256 -120.459040 152 35037ft 433kts
14-Jun-19 18:35 34.583936 -120.379912 152 35026ft 433kts
14-Jun-19 18:36 34.481580 -120.300722 153 35011ft 432kts
14-Jun-19 18:37 34.379583 -120.222253 153 33541ft 439kts
14-Jun-19 18:38 34.277653 -120.144084 152 30794ft 431kts
14-Jun-19 18:39 34.205174 -120.024614 124 27506ft 449kts
14-Jun-19 18:40 34.141003 -119.896908 125 24610ft 437kts
14-Jun-19 18:41 34.078738 -119.774392 125 22886ft 421kts
14-Jun-19 18:42 34.017489 -119.654236 125 21614ft 413kts
14-Jun-19 18:43 33.958269 -119.538413 125 20453ft 388kts
14-Jun-19 18:44 33.903401 -119.431496 125 19343ft 370kts
14-Jun-19 18:45 33.849104 -119.326338 125 18187ft 362kts
14-Jun-19 18:46 33.795802 -119.222912 125 17190ft 356kts
14-Jun-19 18:47 33.747223 -119.129195 125 16257ft 350kts
14-Jun-19 18:48 33.696057 -119.031044 125 15261ft 344kts
14-Jun-19 18:49 33.645421 -118.934046 124 14261ft 339kts
14-Jun-19 18:50 33.595361 -118.838416 124 14019ft 338kts
14-Jun-19 18:51 33.548804 -118.750343 130 14019ft 303kts
14-Jun-19 18:52 33.526326 -118.660021 82 13033ft 283kts
14-Jun-19 18:53 33.539532 -118.570582 82 11692ft 266kts
14-Jun-19 18:54 33.552230 -118.483794 81 10165ft 262kts
14-Jun-19 18:55 33.564590 -118.398229 81 8674ft 258kts
14-Jun-19 18:56 33.576581 -118.313692 82 7196ft 255kts
14-Jun-19 18:57 33.588038 -118.231754 82 5842ft 249kts
14-Jun-19 18:58 33.598904 -118.155442 82 5019ft 220kts
14-Jun-19 18:59 33.609593 -118.081885 82 4988ft 220kts
14-Jun-19 19:00 33.619440 -118.017137 81 4994ft 191kts
14-Jun-19 19:01 33.664132 -118.002026 342 4196ft 201kts
14-Jun-19 19:02 33.716075 -118.028157 315 2675ft 199kts
14-Jun-19 19:03 33.752116 -118.071771 311 1706ft 159kts
14-Jun-19 19:04 33.781591 -118.107219 310 974ft 138kts
14-Jun-19 19:05 33.808928 -118.140534 310 124ft 127kts
14-Jun-19 19:06 33.818555 -118.150830 82 47ft 9kts
14-Jun-19 19:07 33.818576 -118.148836 90 47ft 14kts
14-Jun-19 19:08 33.818576 -118.148623 90 47ft 0kts
14-Jun-19 19:09 33.817005 -118.146337 96 47ft 5kts
14-Jun-19 19:10 33.816999 -118.146073 89 47ft 0kts
14-Jun-19 19:11 33.816999 -118.146073 89 47ft 0kts

Navigation Log

Ident Type
Flight plan parsing failed, navigation log unavailable